createdAt,value
2022-12-22T00:02:10.520Z,101078.53
2022-12-22T00:05:02.017Z,101075.63
2022-12-22T00:07:48.615Z,101075.78
2022-12-22T00:10:37.033Z,101062.13
2022-12-22T00:13:24.188Z,101052.22
2022-12-22T00:16:12.291Z,101051.47
2022-12-22T00:18:58.984Z,101073.38
2022-12-22T00:21:49.966Z,101064.97
2022-12-22T00:24:36.553Z,101058.06
2022-12-22T00:27:23.449Z,101053.31
2022-12-22T00:30:10.144Z,101049.44
2022-12-22T00:32:58.372Z,101052.72
2022-12-22T00:35:45.086Z,101054.22
2022-12-22T00:38:37.861Z,101058.81
2022-12-22T00:41:25.143Z,101048.81
2022-12-22T00:44:11.906Z,101045.94
2022-12-22T00:47:01.605Z,101036.94
2022-12-22T00:49:51.394Z,101032.19
2022-12-22T00:52:40.516Z,101040.13
2022-12-22T00:55:34.438Z,101029.19
2022-12-22T00:58:23.029Z,101030.72
2022-12-22T01:01:09.878Z,101025.41
2022-12-22T01:03:56.518Z,101031.06
2022-12-22T01:06:47.756Z,101023.38
2022-12-22T01:09:34.858Z,101022.59
2022-12-22T01:12:40.316Z,101026.41
2022-12-22T01:15:33.547Z,101026.03
2022-12-22T01:18:20.984Z,101029.28
2022-12-22T01:21:10.015Z,101027.78
2022-12-22T01:23:59.721Z,101029.72
2022-12-22T01:26:46.456Z,101022.22
2022-12-22T01:29:33.260Z,101012.19
2022-12-22T01:32:20.057Z,101017.56
2022-12-22T01:35:07.807Z,101023.91
2022-12-22T01:37:54.467Z,101014.44
2022-12-22T01:40:43.939Z,101013.69
2022-12-22T01:43:37.212Z,101022.81
2022-12-22T01:46:48.906Z,101025.19
2022-12-22T01:49:54.231Z,101016.59
2022-12-22T01:52:49.414Z,101014.03
2022-12-22T01:55:41.664Z,101006.63
2022-12-22T01:58:45.532Z,101005.50
2022-12-22T02:01:32.998Z,101013.53
2022-12-22T02:04:21.318Z,101016.75
2022-12-22T02:07:11.285Z,101027.31
2022-12-22T02:10:07.674Z,101024.84
2022-12-22T02:13:16.183Z,101024.06
2022-12-22T02:16:58.399Z,101015.78
2022-12-22T02:20:22.510Z,101007.88
2022-12-22T02:23:58.543Z,101024.16
2022-12-22T02:26:48.056Z,101015.63
2022-12-22T02:29:38.463Z,101008.72
2022-12-22T02:32:26.565Z,101003.75
2022-12-22T02:35:13.388Z,101001.19
2022-12-22T02:38:11.350Z,100993.00
2022-12-22T02:41:33.919Z,100991.00
2022-12-22T02:44:36.977Z,100999.22
2022-12-22T02:47:47.442Z,101004.38
2022-12-22T02:50:51.662Z,100994.72
2022-12-22T02:53:39.962Z,100990.31
2022-12-22T02:56:29.467Z,100993.34
2022-12-22T02:59:16.294Z,100994.53
2022-12-22T03:02:05.399Z,100993.00
2022-12-22T03:04:52.204Z,100989.72
2022-12-22T03:07:38.765Z,100990.38
2022-12-22T03:10:26.178Z,100981.91
2022-12-22T03:13:12.930Z,100993.06
2022-12-22T03:15:59.361Z,100987.63
2022-12-22T03:18:47.483Z,100974.59
2022-12-22T03:21:34.882Z,100974.94
2022-12-22T03:24:22.320Z,100972.50
2022-12-22T03:26:50.282Z,100975.91
2022-12-22T03:29:19.347Z,100970.94
2022-12-22T03:31:47.357Z,100970.16
2022-12-22T03:34:15.722Z,100962.31
2022-12-22T03:36:43.646Z,100954.44
2022-12-22T03:39:11.946Z,100955.63
2022-12-22T03:41:58.487Z,100961.59
2022-12-22T03:44:45.128Z,100955.38
2022-12-22T03:47:13.084Z,100946.41
2022-12-22T03:49:41.573Z,100942.81
2022-12-22T03:52:09.451Z,100943.72
2022-12-22T03:54:38.878Z,100944.00
2022-12-22T03:57:06.772Z,100938.31
2022-12-22T03:59:35.126Z,100951.09
2022-12-22T04:02:03.308Z,100941.22
2022-12-22T04:04:31.882Z,100941.22
2022-12-22T04:06:59.780Z,100943.47
2022-12-22T04:09:29.620Z,100951.31
2022-12-22T04:12:16.138Z,100943.41
2022-12-22T04:14:44.511Z,100944.38
2022-12-22T04:17:12.592Z,100945.91
2022-12-22T04:19:40.802Z,100946.22
2022-12-22T04:22:08.949Z,100945.59
2022-12-22T04:24:38.243Z,100937.09
2022-12-22T04:27:06.221Z,100932.34
2022-12-22T04:29:35.511Z,100941.78
2022-12-22T04:32:03.804Z,100935.72
2022-12-22T04:34:32.091Z,100938.66
2022-12-22T04:37:09.913Z,100933.00
2022-12-22T04:39:43.760Z,100939.19
2022-12-22T04:42:11.863Z,100934.41
2022-12-22T04:44:41.422Z,100931.97
2022-12-22T04:47:09.426Z,100932.38
2022-12-22T04:49:37.781Z,100932.97
2022-12-22T04:52:05.811Z,100942.56
2022-12-22T04:54:35.167Z,100940.69
2022-12-22T04:57:03.122Z,100942.72
2022-12-22T04:59:31.991Z,100937.22
2022-12-22T05:02:00.213Z,100928.75
2022-12-22T05:04:28.685Z,100934.31
2022-12-22T05:06:56.620Z,100948.44
2022-12-22T05:09:24.930Z,100950.53
2022-12-22T05:11:52.878Z,100955.47
2022-12-22T05:14:21.141Z,100947.06
2022-12-22T05:16:49.194Z,100944.66
2022-12-22T05:19:17.641Z,100946.28
2022-12-22T05:21:45.842Z,100950.75
2022-12-22T05:24:14.499Z,100944.97
2022-12-22T05:26:42.412Z,100942.34
2022-12-22T05:29:11.745Z,100951.91
2022-12-22T05:31:46.758Z,100962.69
2022-12-22T05:34:15.689Z,100953.78
2022-12-22T05:36:43.628Z,100953.97
2022-12-22T05:39:11.936Z,100972.38
2022-12-22T05:41:39.996Z,100958.44
2022-12-22T05:44:08.332Z,100953.22
2022-12-22T05:46:36.439Z,100965.34
2022-12-22T05:49:06.051Z,100955.53
2022-12-22T05:51:34.006Z,100955.00
2022-12-22T05:54:03.839Z,100964.16
2022-12-22T05:56:31.846Z,100960.78
2022-12-22T05:59:00.056Z,100956.75
2022-12-22T06:01:28.043Z,100935.97
2022-12-22T06:04:00.373Z,100925.44
2022-12-22T06:06:29.115Z,100930.19
2022-12-22T06:08:58.484Z,100926.38
2022-12-22T06:11:26.451Z,100925.81
2022-12-22T06:13:54.740Z,100935.53
2022-12-22T06:16:24.110Z,100938.03
2022-12-22T06:18:53.562Z,100938.63
2022-12-22T06:21:21.356Z,100935.94
2022-12-22T06:23:49.506Z,100939.03
2022-12-22T06:26:17.339Z,100943.84
2022-12-22T06:28:45.517Z,100948.91
2022-12-22T06:31:13.398Z,100944.94
2022-12-22T06:33:43.297Z,100932.91
2022-12-22T06:36:11.400Z,100934.84
2022-12-22T06:38:40.759Z,100928.94
2022-12-22T06:41:08.537Z,100915.09
2022-12-22T06:43:37.218Z,100925.75
2022-12-22T06:46:05.278Z,100932.56
2022-12-22T06:48:34.531Z,100928.81
2022-12-22T06:51:02.347Z,100924.66
2022-12-22T06:53:31.048Z,100922.72
2022-12-22T06:55:59.648Z,100931.78
2022-12-22T06:58:27.763Z,100930.56
2022-12-22T07:00:56.977Z,100932.63
2022-12-22T07:03:25.390Z,100931.78
2022-12-22T07:05:53.366Z,100935.16
2022-12-22T07:08:21.535Z,100932.63
2022-12-22T07:10:58.242Z,100928.03
2022-12-22T07:13:32.906Z,100926.97
2022-12-22T07:16:02.489Z,100943.53
2022-12-22T07:18:39.638Z,100939.84
2022-12-22T07:21:14.442Z,100937.28
2022-12-22T07:23:42.814Z,100939.13
2022-12-22T07:26:15.739Z,100949.25
2022-12-22T07:28:45.189Z,100964.06
2022-12-22T07:31:16.554Z,100971.84
2022-12-22T07:33:44.816Z,100964.94
2022-12-22T07:36:17.974Z,100973.13
2022-12-22T07:38:49.131Z,100978.44
2022-12-22T07:41:39.189Z,100977.53
2022-12-22T07:44:09.567Z,100977.53
2022-12-22T07:46:40.093Z,100975.56
2022-12-22T07:49:27.420Z,100990.22
2022-12-22T07:51:57.917Z,100999.19
2022-12-22T07:54:29.392Z,100991.69
2022-12-22T07:56:57.579Z,100988.22
2022-12-22T07:59:26.351Z,100986.56
2022-12-22T08:01:54.472Z,100987.78
2022-12-22T08:04:22.829Z,100984.72
2022-12-22T08:06:50.709Z,100992.59
2022-12-22T08:09:21.825Z,100993.69
2022-12-22T08:11:50.438Z,100988.81
2022-12-22T08:14:18.591Z,100976.94
2022-12-22T08:16:46.535Z,100981.53
2022-12-22T08:19:14.799Z,100983.84
2022-12-22T08:21:48.563Z,100992.88
2022-12-22T08:24:21.387Z,100984.66
2022-12-22T08:26:53.768Z,100994.91
2022-12-22T08:29:44.255Z,100990.88
2022-12-22T08:32:13.692Z,100990.28
2022-12-22T08:34:42.307Z,100991.63
2022-12-22T08:37:15.810Z,100992.59
2022-12-22T08:39:44.597Z,100993.06
2022-12-22T08:42:16.260Z,100997.72
2022-12-22T08:44:46.234Z,100991.03
2022-12-22T08:47:17.075Z,100988.81
2022-12-22T08:49:45.763Z,100988.06
2022-12-22T08:52:18.342Z,100978.91
2022-12-22T08:54:48.750Z,100972.50
2022-12-22T08:57:16.578Z,100971.75
2022-12-22T08:59:44.815Z,100965.91
2022-12-22T09:02:12.705Z,100971.38
2022-12-22T09:04:41.937Z,100973.97
2022-12-22T09:07:09.877Z,100963.16
2022-12-22T09:09:39.309Z,100968.34
2022-12-22T09:12:07.737Z,100954.84
2022-12-22T09:14:35.900Z,100961.19
2022-12-22T09:17:03.778Z,100964.72
2022-12-22T09:19:31.987Z,100971.00
2022-12-22T09:21:59.861Z,100984.50
2022-12-22T09:24:27.952Z,100971.53
2022-12-22T09:26:55.800Z,100971.47
2022-12-22T09:29:24.118Z,100973.69
2022-12-22T09:31:51.977Z,100960.44
2022-12-22T09:34:20.198Z,100962.78
2022-12-22T09:36:48.259Z,100963.28
2022-12-22T09:39:17.134Z,100957.75
2022-12-22T09:41:44.995Z,100958.19
2022-12-22T09:44:24.931Z,100966.03
2022-12-22T09:46:58.501Z,100942.94
2022-12-22T09:49:26.777Z,100946.75
2022-12-22T09:51:58.353Z,100944.75
2022-12-22T09:54:28.099Z,100931.44
2022-12-22T09:56:57.592Z,100928.06
2022-12-22T09:59:28.976Z,100936.22
2022-12-22T10:02:04.223Z,100933.53
2022-12-22T10:04:41.566Z,100932.50
2022-12-22T10:07:38.691Z,100939.44
2022-12-22T10:10:08.359Z,100938.69
2022-12-22T10:12:36.226Z,100934.22
2022-12-22T10:15:15.456Z,100945.59
2022-12-22T10:17:46.578Z,100945.16
2022-12-22T10:20:29.895Z,100931.91
2022-12-22T10:23:24.970Z,100917.97
2022-12-22T10:29:09.261Z,100909.06
2022-12-22T10:31:58.436Z,100907.44
2022-12-22T10:34:27.871Z,100912.78
2022-12-22T10:37:03.428Z,100912.34
2022-12-22T10:39:35.201Z,100906.47
2022-12-22T10:42:14.778Z,100909.59
2022-12-22T10:44:48.394Z,100905.53
2022-12-22T10:47:21.653Z,100906.19
2022-12-22T10:52:31.883Z,100906.63
2022-12-22T10:55:19.669Z,100902.97
2022-12-22T10:57:49.611Z,100910.63
2022-12-22T11:00:32.806Z,100910.19
2022-12-22T11:03:03.938Z,100903.09
2022-12-22T11:05:33.286Z,100900.06
2022-12-22T11:08:15.062Z,100895.84
2022-12-22T11:11:08.163Z,100902.22
2022-12-22T11:13:55.512Z,100903.25
2022-12-22T11:16:49.903Z,100910.50
2022-12-22T11:19:56.593Z,100919.59
2022-12-22T11:22:34.015Z,100909.41
2022-12-22T11:25:20.547Z,100902.41
2022-12-22T11:28:22.000Z,100906.13
2022-12-22T11:30:55.861Z,100904.34
2022-12-22T11:33:48.752Z,100904.53
2022-12-22T11:36:51.910Z,100898.03
2022-12-22T11:39:40.734Z,100901.13
2022-12-22T11:42:39.077Z,100900.34
2022-12-22T11:45:30.052Z,100895.66
2022-12-22T11:48:31.652Z,100885.97
2022-12-22T11:51:13.801Z,100874.84
2022-12-22T11:53:58.221Z,100874.72
2022-12-22T11:56:47.082Z,100867.81
2022-12-22T11:59:39.920Z,100856.47
2022-12-22T12:02:37.017Z,100838.06
2022-12-22T12:05:17.236Z,100847.91
2022-12-22T12:07:53.936Z,100842.97
2022-12-22T12:10:27.921Z,100830.78
2022-12-22T12:13:26.444Z,100835.25
2022-12-22T12:16:20.220Z,100821.06
2022-12-22T12:19:12.312Z,100822.34
2022-12-22T12:21:59.375Z,100819.38
2022-12-22T12:24:40.892Z,100820.41
2022-12-22T12:27:45.646Z,100816.63
2022-12-22T12:33:36.654Z,100790.13
2022-12-22T12:36:26.870Z,100794.34
2022-12-22T12:39:17.501Z,100790.81
2022-12-22T12:41:48.844Z,100794.41
2022-12-22T12:44:21.582Z,100775.22
2022-12-22T12:46:53.188Z,100784.41
2022-12-22T12:49:36.484Z,100788.22
2022-12-22T12:52:10.352Z,100799.81
2022-12-22T12:54:43.751Z,100797.81
2022-12-22T12:57:14.876Z,100795.72
2022-12-22T12:59:42.826Z,100787.22
2022-12-22T13:02:34.711Z,100779.00
2022-12-22T13:05:12.425Z,100770.97
2022-12-22T13:08:15.808Z,100773.34
2022-12-22T13:10:45.846Z,100784.88
2022-12-22T13:13:35.007Z,100769.66
2022-12-22T13:16:03.236Z,100772.31
2022-12-22T13:18:35.480Z,100769.19
2022-12-22T13:26:48.077Z,100780.50
2022-12-22T13:29:26.579Z,100780.78
2022-12-22T13:32:01.959Z,100783.34
2022-12-22T13:35:29.820Z,100776.94
2022-12-22T13:37:49.123Z,100773.63
2022-12-22T13:40:21.997Z,100775.91
2022-12-22T13:43:01.258Z,100769.25
2022-12-22T13:45:37.525Z,100764.88
2022-12-22T13:48:13.105Z,100762.22
2022-12-22T13:51:24.789Z,100755.38
2022-12-22T13:54:09.014Z,100753.75
2022-12-22T13:56:53.441Z,100753.03
2022-12-22T13:59:40.796Z,100751.13
2022-12-22T14:02:09.164Z,100738.25
2022-12-22T14:04:40.895Z,100751.00
2022-12-22T14:07:21.636Z,100751.56
2022-12-22T14:09:52.114Z,100744.97
2022-12-22T14:12:25.858Z,100746.09
2022-12-22T14:14:57.454Z,100744.31
2022-12-22T14:17:29.043Z,100748.66
2022-12-22T14:20:03.340Z,100752.00
2022-12-22T14:22:40.609Z,100754.56
2022-12-22T14:25:24.094Z,100749.91
2022-12-22T14:27:57.624Z,100748.56
2022-12-22T14:30:37.831Z,100755.34
2022-12-22T14:33:28.666Z,100757.66
2022-12-22T14:36:23.429Z,100759.13
2022-12-22T14:38:59.079Z,100766.81
2022-12-22T14:41:42.104Z,100757.94
2022-12-22T14:44:16.714Z,100772.81
2022-12-22T14:46:45.832Z,100773.59
2022-12-22T14:49:18.518Z,100780.09
2022-12-22T14:52:01.004Z,100776.75
2022-12-22T14:54:30.028Z,100778.63
2022-12-22T14:57:15.721Z,100781.63
2022-12-22T15:00:09.804Z,100775.03
2022-12-22T15:02:41.095Z,100770.78
2022-12-22T15:05:17.397Z,100784.31
2022-12-22T15:08:06.569Z,100781.25
2022-12-22T15:10:44.649Z,100781.13
2022-12-22T15:13:24.301Z,100785.31
2022-12-22T15:15:52.982Z,100786.63
2022-12-22T15:18:26.108Z,100786.19
2022-12-22T15:20:56.850Z,100789.59
2022-12-22T15:23:25.252Z,100780.63
2022-12-22T15:25:54.120Z,100776.78
2022-12-22T15:28:22.091Z,100772.63
2022-12-22T15:30:50.334Z,100772.63
2022-12-22T15:33:19.924Z,100764.34
2022-12-22T15:35:48.269Z,100762.31
2022-12-22T15:38:22.241Z,100768.88
2022-12-22T15:40:52.003Z,100771.44
2022-12-22T15:43:55.942Z,100773.03
2022-12-22T15:46:11.410Z,100765.69
2022-12-22T15:48:40.197Z,100770.72
2022-12-22T15:51:27.626Z,100766.22
2022-12-22T15:53:58.012Z,100748.59
2022-12-22T15:56:28.733Z,100746.84
2022-12-22T15:58:57.501Z,100748.69
2022-12-22T16:01:25.814Z,100752.41
2022-12-22T16:03:53.810Z,100746.94
2022-12-22T16:06:22.191Z,100735.38
2022-12-22T16:08:53.670Z,100742.97
2022-12-22T16:11:24.016Z,100739.19
2022-12-22T16:13:52.618Z,100740.06
2022-12-22T16:16:21.065Z,100738.84
2022-12-22T16:18:49.052Z,100736.41
2022-12-22T16:21:21.187Z,100738.38
2022-12-22T16:23:50.692Z,100738.22
2022-12-22T16:26:20.896Z,100732.84
2022-12-22T16:28:48.994Z,100740.28
2022-12-22T16:31:25.285Z,100745.28
2022-12-22T16:33:53.202Z,100741.69
2022-12-22T16:36:21.339Z,100741.69
2022-12-22T16:38:49.243Z,100749.63
2022-12-22T16:41:25.124Z,100746.66
2022-12-22T16:46:45.648Z,100745.03
2022-12-22T16:49:22.938Z,100753.03
2022-12-22T16:51:56.080Z,100747.06
2022-12-22T16:54:24.061Z,100739.00
2022-12-22T16:56:52.224Z,100738.53
2022-12-22T16:59:20.187Z,100733.03
2022-12-22T17:01:53.763Z,100733.78
2022-12-22T17:04:30.939Z,100740.47
2022-12-22T17:07:01.004Z,100734.28
2022-12-22T17:09:42.730Z,100740.00
2022-12-22T17:12:21.981Z,100746.09
2022-12-22T17:14:50.832Z,100733.28
2022-12-22T17:17:30.864Z,100741.03
2022-12-22T17:19:59.879Z,100745.75
2022-12-22T17:22:31.191Z,100744.91
2022-12-22T17:25:05.828Z,100738.44
2022-12-22T17:27:35.381Z,100734.47
2022-12-22T17:30:04.323Z,100746.31
2022-12-22T17:32:32.473Z,100745.69
2022-12-22T17:35:00.815Z,100749.56
2022-12-22T17:37:29.151Z,100755.34
2022-12-22T17:40:02.562Z,100753.41
2022-12-22T17:42:32.616Z,100760.25
2022-12-22T17:45:00.787Z,100767.09
2022-12-22T17:47:34.796Z,100773.91
2022-12-22T17:50:08.339Z,100780.19
2022-12-22T17:52:36.482Z,100781.91
2022-12-22T17:55:05.326Z,100776.31
2022-12-22T17:57:35.760Z,100775.50
2022-12-22T18:00:04.770Z,100769.88
2022-12-22T18:02:40.084Z,100770.94
2022-12-22T18:05:15.804Z,100772.81
2022-12-22T18:07:45.898Z,100775.94
2022-12-22T18:10:30.821Z,100785.25
2022-12-22T18:13:01.249Z,100783.69
2022-12-22T18:15:30.819Z,100785.50
2022-12-22T18:18:00.501Z,100783.16
2022-12-22T18:20:29.470Z,100790.06
2022-12-22T18:23:02.318Z,100785.22
2022-12-22T18:25:32.687Z,100783.88
2022-12-22T18:28:01.069Z,100791.56
2022-12-22T18:30:30.367Z,100792.91
2022-12-22T18:32:58.689Z,100800.03
2022-12-22T18:35:28.202Z,100793.91
2022-12-22T18:37:58.464Z,100796.38
2022-12-22T18:40:28.642Z,100794.38
2022-12-22T18:42:58.375Z,100798.72
2022-12-22T18:45:28.871Z,100797.72
2022-12-22T18:47:57.901Z,100796.28
2022-12-22T18:50:29.240Z,100808.50
2022-12-22T18:53:02.364Z,100808.53
2022-12-22T18:55:33.365Z,100805.47
2022-12-22T18:58:02.907Z,100806.97
2022-12-22T19:00:36.409Z,100813.13
2022-12-22T19:03:18.992Z,100812.16
2022-12-22T19:05:47.898Z,100815.03
2022-12-22T19:08:18.761Z,100800.19
2022-12-22T19:11:04.172Z,100804.56
2022-12-22T19:13:42.809Z,100803.28
2022-12-22T19:16:16.639Z,100785.06
2022-12-22T19:18:45.104Z,100791.16
2022-12-22T19:21:17.638Z,100794.94
2022-12-22T19:23:46.101Z,100797.47
2022-12-22T19:26:23.671Z,100801.91
2022-12-22T19:29:00.640Z,100798.53
2022-12-22T19:31:33.828Z,100797.03
2022-12-22T19:34:11.414Z,100801.25
2022-12-22T19:36:39.488Z,100786.50
2022-12-22T19:39:07.852Z,100787.16
2022-12-22T19:41:53.185Z,100791.91
2022-12-22T19:44:26.168Z,100800.50
2022-12-22T19:46:55.814Z,100793.91
2022-12-22T19:49:27.472Z,100788.47
2022-12-22T19:51:56.931Z,100785.28
2022-12-22T19:54:25.480Z,100789.66
2022-12-22T19:56:56.239Z,100789.78
2022-12-22T19:59:46.754Z,100793.84
2022-12-22T20:02:30.796Z,100810.41
2022-12-22T20:05:00.480Z,100799.56
2022-12-22T20:07:30.838Z,100800.25
2022-12-22T20:10:00.565Z,100805.84
2022-12-22T20:12:32.642Z,100804.88
2022-12-22T20:15:02.584Z,100797.78
2022-12-22T20:17:30.700Z,100805.06
2022-12-22T20:19:59.001Z,100806.84
2022-12-22T20:22:27.539Z,100802.31
2022-12-22T20:24:56.037Z,100794.81
2022-12-22T20:27:32.023Z,100801.59
2022-12-22T20:30:00.433Z,100806.88
2022-12-22T20:32:28.802Z,100808.00
2022-12-22T20:34:57.414Z,100802.78
2022-12-22T20:37:25.725Z,100806.88
2022-12-22T20:39:54.032Z,100806.75
2022-12-22T20:42:24.744Z,100807.94
2022-12-22T20:45:02.225Z,100813.38
2022-12-22T20:47:33.929Z,100803.00
2022-12-22T20:50:02.334Z,100802.84
2022-12-22T20:52:30.353Z,100798.22
2022-12-22T20:54:58.672Z,100788.38
2022-12-22T20:57:27.720Z,100790.28
2022-12-22T20:59:56.904Z,100796.78
2022-12-22T21:02:30.082Z,100791.88
2022-12-22T21:04:59.582Z,100798.22
2022-12-22T21:07:27.579Z,100802.22
2022-12-22T21:09:55.963Z,100804.63
2022-12-22T21:12:23.936Z,100792.88
2022-12-22T21:14:53.473Z,100803.72
2022-12-22T21:17:21.652Z,100806.00
2022-12-22T21:19:50.116Z,100811.09
2022-12-22T21:22:18.739Z,100811.75
2022-12-22T21:24:47.199Z,100807.31
2022-12-22T21:27:20.736Z,100799.38
2022-12-22T21:29:50.141Z,100786.25
2022-12-22T21:32:18.171Z,100782.91
2022-12-22T21:34:46.554Z,100785.72
2022-12-22T21:37:20.190Z,100794.44
2022-12-22T21:39:48.707Z,100797.50
2022-12-22T21:42:20.007Z,100796.72
2022-12-22T21:44:48.554Z,100784.78
2022-12-22T21:47:20.840Z,100799.34
2022-12-22T21:49:49.483Z,100818.31
2022-12-22T21:52:17.525Z,100809.84
2022-12-22T21:54:45.835Z,100795.81
2022-12-22T21:57:18.369Z,100805.88
2022-12-22T21:59:46.805Z,100806.13
2022-12-22T22:02:17.720Z,100805.25
2022-12-22T22:04:54.247Z,100798.94
2022-12-22T22:07:23.704Z,100796.28
2022-12-22T22:09:52.026Z,100801.88
2022-12-22T22:12:37.537Z,100792.28
2022-12-22T22:15:08.318Z,100811.56
2022-12-22T22:17:36.987Z,100800.03
2022-12-22T22:20:07.593Z,100802.66
2022-12-22T22:22:35.835Z,100824.97
2022-12-22T22:25:04.792Z,100826.06
2022-12-22T22:27:32.880Z,100833.97
2022-12-22T22:30:01.226Z,100818.91
2022-12-22T22:32:29.378Z,100812.03
2022-12-22T22:34:57.794Z,100817.06
2022-12-22T22:37:25.740Z,100815.47
2022-12-22T22:39:54.086Z,100802.69
2022-12-22T22:42:22.214Z,100784.38
2022-12-22T22:44:51.567Z,100790.69
2022-12-22T22:47:19.646Z,100787.66
2022-12-22T22:49:47.980Z,100801.84
2022-12-22T22:52:16.074Z,100789.88
2022-12-22T22:54:44.350Z,100786.78
2022-12-22T22:57:12.437Z,100784.47
2022-12-22T22:59:40.802Z,100793.94
2022-12-22T23:02:11.256Z,100777.50
2022-12-22T23:04:39.803Z,100771.22
2022-12-22T23:07:07.811Z,100774.00
2022-12-22T23:09:36.168Z,100774.78
2022-12-22T23:12:04.492Z,100779.69
2022-12-22T23:14:32.829Z,100776.06
2022-12-22T23:17:00.936Z,100775.09
2022-12-22T23:19:29.402Z,100765.63
2022-12-22T23:21:57.687Z,100758.53
2022-12-22T23:24:26.591Z,100758.34
2022-12-22T23:26:55.381Z,100770.19
2022-12-22T23:29:23.741Z,100760.94
2022-12-22T23:31:51.872Z,100751.84
2022-12-22T23:34:20.190Z,100742.16
2022-12-22T23:36:48.188Z,100740.81
2022-12-22T23:39:16.494Z,100743.56
2022-12-22T23:41:44.693Z,100747.75
2022-12-22T23:44:13.145Z,100746.13
2022-12-22T23:46:41.372Z,100749.59
2022-12-22T23:49:11.661Z,100745.78
2022-12-22T23:51:40.766Z,100742.31
2022-12-22T23:54:09.042Z,100732.63
2022-12-22T23:56:37.152Z,100742.22
2022-12-22T23:59:05.374Z,100747.75
